Latest Weather Observations for Eildon Fire Tower

IDV60801

Issued at 8:02 pm EDT Thursday 19 October 2017 (issued every 30 minutes, with the page automatically refreshed every 10 minutes)

About weather observations | Map of weather stations | Latest weather observations for VIC | Other Formats
Station Details ID: 088164 Name: EILDON FIRE TOWER Lat: -37.21 Lon: 145.84 Height: 637.0 m
Data from the previous 72 hours. | See also: Recent months at Eildon Fire Tower
Date/Time
EDT
Temp
°C
App
Temp
°C
Dew
Point
°C
Rel
Hum
%
Delta-T
°C
Wind Press
QNH
hPa
Press
MSL
hPa
Rain since
9am
mm
Dir  Spd
km/h
Gust
km/h
Spd
kts
Gust
kts
19/08:00pm 14.3 7.0 13.5 95 0.5 SW 44 65 24 35 - - 6.4
19/07:53pm 14.5 7.5 13.7 95 0.5 SW 43 65 23 35 - - 6.4
19/07:30pm 16.3 10.4 14.8 91 0.9 SW 39 52 21 28 - - 6.4
19/07:14pm 17.5 13.7 15.7 89 1.1 SW 30 46 16 25 - - 6.4
19/07:00pm 18.0 16.6 16.5 91 0.9 SW 19 28 10 15 - - 6.4
19/06:30pm 19.1 19.3 17.6 91 0.9 W 13 17 7 9 - - 6.4
19/06:00pm 19.8 19.4 17.2 85 1.6 W 15 22 8 12 - - 6.4
19/05:30pm 18.2 19.3 17.0 93 0.7 N 7 11 4 6 - - 6.4
19/05:00pm 18.8 19.7 17.6 93 0.8 NNE 9 11 5 6 - - 6.4
19/04:30pm 17.9 19.0 17.1 95 0.5 NE 7 11 4 6 - - 6.4
19/04:00pm 18.0 19.2 16.9 93 0.7 NE 6 9 3 5 - - 5.2
19/03:30pm 17.9 18.5 16.8 93 0.7 ENE 9 11 5 6 - - 5.2
19/03:00pm 19.0 20.0 17.8 93 0.8 NE 9 13 5 7 - - 5.2
19/02:30pm 18.1 18.5 17.3 95 0.5 NE 11 17 6 9 - - 5.2
19/02:00pm 16.5 17.1 15.7 95 0.5 NE 7 11 4 6 - - 5.2
19/01:30pm 16.2 16.5 14.9 92 0.8 NNE 7 13 4 7 - - 4.6
19/01:00pm 17.5 16.9 15.7 89 1.1 NE 13 17 7 9 - - 2.6
19/12:30pm 16.8 16.1 15.5 92 0.8 NE 13 20 7 11 - - 2.6
19/12:00pm 15.5 14.5 14.7 95 0.5 NE 13 20 7 11 - - 2.6
19/11:30am 15.2 12.9 14.7 97 0.3 NE 20 28 11 15 - - 2.6
19/11:00am 14.6 12.1 14.1 97 0.3 ENE 20 26 11 14 - - 2.6
19/10:30am 14.8 12.9 14.2 96 0.3 NE 17 20 9 11 - - 2.6
19/10:00am 14.8 12.3 14.2 96 0.3 NNE 20 37 11 20 - - 2.4
19/09:30am 14.7 12.0 13.6 93 0.6 NNE 20 30 11 16 - - 1.8
19/09:00am 15.6 12.7 12.9 84 1.5 NNE 20 32 11 17 - - 0.8
19/08:30am 17.7 13.7 11.7 68 3.4 NNE 24 43 13 23 - - 0.4
19/08:20am 17.9 13.1 11.5 66 3.6 NNE 28 46 15 25 - - 0.4
19/08:00am 18.0 12.8 11.6 66 3.6 NNE 30 44 16 24 - - 0.4
19/07:31am 18.6 13.5 10.7 60 4.4 NNE 28 46 15 25 - - 0.4
19/07:30am 18.6 13.4 10.4 59 4.5 NNE 28 41 15 22 - - 0.4
19/07:00am 18.3 13.5 10.4 60 4.4 NNE 26 43 14 23 - - 0.4
19/06:30am 17.2 13.2 10.3 64 3.8 NNE 22 35 12 19 - - 0.2
19/06:00am 18.3 14.3 9.1 55 5.0 NNE 20 35 11 19 - - 0.0
19/05:30am 18.3 14.5 9.1 55 5.0 NNE 19 32 10 17 - - 0.0
19/05:00am 18.4 14.6 8.9 54 5.1 NNE 19 26 10 14 - - 0.0
19/04:30am 18.1 14.3 9.2 56 4.8 NNE 19 26 10 14 - - 0.0
19/04:00am 17.7 13.8 9.6 59 4.4 NNE 20 32 11 17 - - 0.0
19/03:30am 18.0 14.2 9.9 59 4.4 NE 20 30 11 16 - - 0.0
19/03:00am 18.1 14.3 9.7 58 4.6 NNE 20 32 11 17 - - 0.0
19/02:30am 17.8 14.1 10.2 61 4.2 NE 20 30 11 16 - - 0.0
19/02:00am 18.0 14.5 10.1 60 4.3 NNE 19 24 10 13 - - 0.0
19/01:30am 18.0 14.8 10.1 60 4.3 NNE 17 24 9 13 - - 0.0
19/01:00am 18.1 15.0 10.2 60 4.3 NNE 17 22 9 12 - - 0.0
19/12:30am 18.2 14.7 10.3 60 4.4 NNE 19 24 10 13 - - 0.0
19/12:00am 18.0 15.1 10.9 63 4.0 NNE 17 22 9 12 - - 0.0
 
Date/Time
EDT
Temp
°C
App
Temp
°C
Dew
Point
°C
Rel
Hum
%
Delta-T
°C
Wind Press
QNH
hPa
Press
MSL
hPa
Rain since
9am
mm
Dir  Spd
km/h
Gust
km/h
Spd
kts
Gust
kts
18/11:30pm 18.6 15.3 10.9 61 4.3 NNE 19 24 10 13 - - 0.0
18/11:00pm 18.6 15.8 11.4 63 4.1 NNE 17 26 9 14 - - 0.0
18/10:30pm 18.9 15.4 11.0 60 4.4 NNE 20 28 11 15 - - 0.0
18/10:00pm 18.9 16.1 11.2 61 4.3 NNE 17 22 9 12 - - 0.0
18/09:30pm 19.2 16.8 11.3 60 4.5 NNE 15 20 8 11 - - 0.0
18/09:00pm 19.4 17.2 10.7 57 4.9 NNE 13 17 7 9 - - 0.0
18/08:30pm 20.4 16.9 10.2 52 5.7 NNE 19 26 10 14 - - 0.0
18/08:00pm 20.7 17.0 9.6 49 6.1 NNE 19 24 10 13 - - 0.0
18/07:30pm 21.1 18.4 9.0 46 6.6 N 13 20 7 11 - - 0.0
18/07:00pm 21.6 19.2 8.5 43 7.1 NNE 11 19 6 10 - - 0.0
18/06:30pm 22.6 19.7 8.0 39 7.9 N 13 19 7 10 - - 0.0
18/06:00pm 23.0 20.6 8.7 40 7.9 NNE 11 19 6 10 - - 0.0
18/05:30pm 23.2 20.0 9.9 43 7.5 NE 17 24 9 13 - - 0.0
18/05:00pm 23.6 21.0 10.6 44 7.4 NNE 15 22 8 12 - - 0.0
18/04:30pm 23.7 20.8 9.7 41 7.9 NE 15 22 8 12 - - 0.0
18/04:00pm 24.1 21.1 9.3 39 8.3 NNE 15 24 8 13 - - 0.0
18/03:30pm 23.7 21.9 12.0 48 6.8 ENE 13 22 7 12 - - 0.0
18/03:00pm 23.8 21.6 10.8 44 7.4 NE 13 20 7 11 - - 0.0
18/02:30pm 23.4 21.0 11.5 47 6.9 ENE 15 20 8 11 - - 0.0
18/02:00pm 23.1 20.6 10.9 46 7.0 ENE 15 24 8 13 - - 0.0
18/01:30pm 23.0 20.0 10.8 46 7.0 NE 17 22 9 12 - - 0.0
18/01:00pm 22.8 20.9 13.0 54 5.8 NE 15 20 8 11 - - 0.0
18/12:30pm 22.3 19.2 11.7 51 6.1 NE 19 28 10 15 - - 0.0
18/12:00pm 22.5 19.1 10.6 47 6.7 NE 19 28 10 15 - - 0.0
18/11:30am 21.3 17.6 10.2 49 6.2 NE 20 30 11 16 - - 0.0
18/11:00am 20.6 16.5 10.1 51 5.8 NE 22 33 12 18 - - 0.0
18/10:30am 19.8 16.1 10.0 53 5.4 NE 20 33 11 18 - - 0.0
18/10:00am 19.3 15.4 8.6 50 5.8 NE 19 28 10 15 - - 0.0
18/09:30am 18.9 15.6 8.0 49 5.8 NNE 15 26 8 14 - - 0.0
18/09:00am 18.1 15.2 8.1 52 5.3 NE 13 20 7 11 - - 0.0
18/08:30am 17.5 13.7 5.8 46 5.9 NE 15 20 8 11 - - 0.0
18/08:00am 17.0 12.6 4.7 44 6.0 NNE 17 20 9 11 - - 0.0
18/07:30am 16.5 12.1 4.5 45 5.8 NNE 17 24 9 13 - - 0.0
18/07:00am 16.6 11.5 4.0 43 6.1 NE 20 24 11 13 - - 0.0
18/06:30am 15.3 10.3 4.4 48 5.3 NE 20 24 11 13 - - 0.0
18/06:00am 16.0 10.9 4.1 45 5.7 NE 20 24 11 13 - - 0.0
18/05:30am 16.6 11.0 3.3 41 6.3 NE 22 28 12 15 - - 0.0
18/05:00am 16.6 11.4 3.7 42 6.2 NE 20 28 11 15 - - 0.0
18/04:30am 16.7 11.5 3.4 41 6.3 NE 20 28 11 15 - - 0.0
18/04:00am 17.1 12.1 3.4 40 6.6 ENE 19 20 10 11 - - 0.0
18/03:30am 15.3 11.1 5.8 53 4.7 ENE 17 19 9 10 - - 0.0
18/03:00am 14.3 11.2 7.4 63 3.5 ENE 13 17 7 9 - - 0.0
18/02:30am 15.8 11.7 6.3 53 4.8 E 17 20 9 11 - - 0.0
18/02:00am 15.2 11.1 6.0 54 4.6 ENE 17 20 9 11 - - 0.0
18/01:30am 16.0 12.5 5.3 49 5.3 E 13 17 7 9 - - 0.0
18/01:00am 16.5 13.3 4.9 46 5.7 ENE 11 11 6 6 - - 0.0
18/12:30am 17.5 14.8 5.4 45 6.0 ENE 9 11 5 6 - - 0.0
18/12:00am 17.7 14.8 4.6 42 6.5 NE 9 9 5 5 - - 0.0
 
Date/Time
EDT
Temp
°C
App
Temp
°C
Dew
Point
°C
Rel
Hum
%
Delta-T
°C
Wind Press
QNH
hPa
Press
MSL
hPa
Rain since
9am
mm
Dir  Spd
km/h
Gust
km/h
Spd
kts
Gust
kts
17/11:30pm 18.5 15.5 4.3 39 7.0 NE 9 9 5 5 - - 0.0
17/11:00pm 18.5 15.2 4.3 39 7.0 NE 11 13 6 7 - - 0.0
17/10:30pm 18.8 15.4 4.2 38 7.2 NE 11 13 6 7 - - 0.0
17/10:00pm 19.5 16.8 3.6 35 7.8 ENE 7 9 4 5 - - 0.0
17/09:30pm 19.7 17.3 4.2 36 7.7 NE 6 7 3 4 - - 0.0
17/09:00pm 19.7 16.6 3.4 34 8.0 ENE 9 13 5 7 - - 0.0
17/08:30pm 20.0 16.4 2.8 32 8.3 NE 11 13 6 7 - - 0.0
17/08:00pm 21.6 18.8 -0.4 23 10.1 NW 4 6 2 3 - - 0.0
17/07:30pm 22.4 19.1 0.3 23 10.4 NNW 7 9 4 5 - - 0.0
17/07:00pm 21.8 18.3 1.5 26 9.7 N 9 13 5 7 - - 0.0
17/06:30pm 21.9 18.2 2.1 27 9.6 N 11 15 6 8 - - 0.0
17/06:00pm 22.6 18.4 -0.8 21 10.8 N 11 15 6 8 - - 0.0
17/05:30pm 23.2 18.8 0.3 22 10.8 N 13 17 7 9 - - 0.0
17/05:00pm 23.5 19.1 -2.2 18 11.6 N 11 17 6 9 - - 0.0
17/04:30pm 23.6 19.5 0.0 21 11.1 NNE 11 20 6 11 - - 0.0
17/04:00pm 23.8 19.8 0.2 21 11.2 NNE 11 19 6 10 - - 0.0
17/03:30pm 23.8 20.0 3.7 27 10.1 NE 13 19 7 10 - - 0.0
17/03:00pm 23.7 19.4 3.1 26 10.3 NNE 15 24 8 13 - - 0.0
17/02:30pm 23.4 19.8 4.9 30 9.5 NE 13 20 7 11 - - 0.0
17/02:00pm 23.6 19.4 4.0 28 9.9 NE 15 28 8 15 - - 0.0
17/01:30pm 23.1 19.0 4.6 30 9.4 NNE 15 26 8 14 - - 0.0
17/01:00pm 22.9 19.4 7.4 37 8.3 NE 15 22 8 12 - - 0.0
17/12:30pm 22.3 19.4 9.8 45 7.0 NE 15 22 8 12 - - 0.0
17/12:00pm 21.5 18.3 10.0 48 6.4 NE 17 24 9 13 - - 0.0
17/11:30am 20.9 17.3 8.5 45 6.7 NE 17 28 9 15 - - 0.0
17/11:00am 19.7 15.5 8.1 47 6.2 NE 20 32 11 17 - - 0.0
17/10:30am 19.3 15.7 8.3 49 5.9 NE 17 24 9 13 - - 0.0
17/10:00am 18.7 15.1 8.4 51 5.5 NE 17 26 9 14 - - 0.0
17/09:30am 18.2 15.0 8.5 53 5.2 NNE 15 22 8 12 - - 0.0
17/09:00am 18.2 15.1 9.0 55 5.0 NE 15 19 8 10 - - 0.0
17/08:30am 17.6 15.0 9.5 59 4.4 NNE 13 19 7 10 - - 0.0
17/08:00am 16.6 13.2 9.1 61 4.0 NE 17 20 9 11 - - 0.0
17/07:30am 15.9 12.4 8.9 63 3.7 NE 17 24 9 13 - - 0.0
17/07:00am 14.9 10.8 8.6 66 3.3 NE 20 24 11 13 - - 0.0
17/06:30am 13.7 9.9 9.0 73 2.5 NE 19 24 10 13 - - 0.0
17/06:00am 14.6 10.6 9.0 69 2.9 NNE 20 28 11 15 - - 0.0
17/05:30am 14.4 12.0 8.6 68 3.0 NE 11 13 6 7 - - 0.0
17/05:00am 15.7 12.8 8.2 61 3.9 ENE 13 15 7 8 - - 0.0
17/04:30am 16.5 14.1 8.5 59 4.2 ENE 11 13 6 7 - - 0.0
17/04:00am 15.4 12.7 8.9 65 3.4 NE 13 15 7 8 - - 0.0
17/03:30am 15.2 13.2 8.7 65 3.4 NNE 9 13 5 7 - - 0.0
17/03:00am 15.9 13.6 8.9 63 3.7 NNE 11 13 6 7 - - 0.0
17/02:30am 15.6 14.0 8.8 64 3.6 NE 7 9 4 5 - - 0.0
17/02:00am 15.7 14.0 8.4 62 3.8 NE 7 9 4 5 - - 0.0
17/01:30am 16.5 14.8 8.5 59 4.2 NNE 7 9 4 5 - - 0.0
17/01:00am 16.7 14.9 8.1 57 4.5 NNE 7 9 4 5 - - 0.0
17/12:30am 17.1 15.0 8.3 56 4.6 NNE 9 11 5 6 - - 0.0
17/12:00am 17.2 15.3 8.9 58 4.4 NNE 9 11 5 6 - - 0.0
 
Date/Time
EDT
Temp
°C
App
Temp
°C
Dew
Point
°C
Rel
Hum
%
Delta-T
°C
Wind Press
QNH
hPa
Press
MSL
hPa
Rain since
9am
mm
Dir  Spd
km/h
Gust
km/h
Spd
kts
Gust
kts
16/11:30pm 17.7 16.7 8.8 56 4.8 WSW 4 6 2 3 - - 0.0
16/11:00pm 18.5 18.1 8.2 51 5.5 CALM 0 0 0 0 - - 0.0
16/10:30pm 19.0 18.6 8.1 49 5.8 CALM 0 0 0 0 - - 0.0
16/10:00pm 18.8 17.4 8.7 52 5.4 WSW 6 7 3 4 - - 0.0
16/09:30pm 18.6 16.3 9.1 54 5.1 SW 11 13 6 7 - - 0.0
16/09:00pm 18.9 16.6 9.1 53 5.3 WSW 11 13 6 7 - - 0.0
16/08:30pm 19.0 16.8 9.5 54 5.2 WSW 11 13 6 7 - - 0.0

Other Formats:

Comma delimited format used in spreadsheet applications
http://www.bom.gov.au/fwo/IDV60801/IDV60801.94881.axf

JavaScript Object Notation format (JSON) in row-major order
http://www.bom.gov.au/fwo/IDV60801/IDV60801.94881.json